sensor_id;sensor_type;location;lat;lon;timestamp;P1;durP1;ratioP1;P2;durP2;ratioP2
2199;SDS011;1106;48.762;9.168;2022-10-23T00:00:45;19.63;;;18.23;;
2199;SDS011;1106;48.762;9.168;2022-10-23T00:03:11;17.87;;;16.57;;
2199;SDS011;1106;48.762;9.168;2022-10-23T00:05:39;16.60;;;15.70;;
2199;SDS011;1106;48.762;9.168;2022-10-23T00:08:06;17.67;;;16.23;;
2199;SDS011;1106;48.762;9.168;2022-10-23T00:10:33;17.80;;;16.70;;
2199;SDS011;1106;48.762;9.168;2022-10-23T00:13:00;18.40;;;16.67;;
2199;SDS011;1106;48.762;9.168;2022-10-23T00:15:27;18.00;;;16.70;;
2199;SDS011;1106;48.762;9.168;2022-10-23T00:17:56;17.20;;;16.10;;
2199;SDS011;1106;48.762;9.168;2022-10-23T00:20:23;18.23;;;16.80;;
2199;SDS011;1106;48.762;9.168;2022-10-23T00:22:49;18.43;;;17.23;;
2199;SDS011;1106;48.762;9.168;2022-10-23T00:25:16;17.23;;;15.93;;
2199;SDS011;1106;48.762;9.168;2022-10-23T00:27:44;19.03;;;17.53;;
2199;SDS011;1106;48.762;9.168;2022-10-23T00:30:11;17.07;;;16.03;;
2199;SDS011;1106;48.762;9.168;2022-10-23T00:32:38;18.23;;;16.83;;
2199;SDS011;1106;48.762;9.168;2022-10-23T00:35:07;18.90;;;17.40;;
2199;SDS011;1106;48.762;9.168;2022-10-23T00:37:34;18.03;;;16.83;;
2199;SDS011;1106;48.762;9.168;2022-10-23T00:40:01;18.13;;;16.83;;
2199;SDS011;1106;48.762;9.168;2022-10-23T00:42:29;18.00;;;16.63;;
2199;SDS011;1106;48.762;9.168;2022-10-23T00:45:11;17.50;;;16.13;;
2199;SDS011;1106;48.762;9.168;2022-10-23T00:47:41;18.03;;;16.73;;
2199;SDS011;1106;48.762;9.168;2022-10-23T00:50:10;17.90;;;16.60;;
2199;SDS011;1106;48.762;9.168;2022-10-23T00:52:38;18.10;;;17.00;;
2199;SDS011;1106;48.762;9.168;2022-10-23T00:55:07;17.50;;;16.37;;
2199;SDS011;1106;48.762;9.168;2022-10-23T00:57:34;16.83;;;15.53;;
2199;SDS011;1106;48.762;9.168;2022-10-23T01:00:03;16.40;;;15.50;;
2199;SDS011;1106;48.762;9.168;2022-10-23T01:02:30;17.10;;;16.03;;
2199;SDS011;1106;48.762;9.168;2022-10-23T01:04:57;16.23;;;15.33;;
2199;SDS011;1106;48.762;9.168;2022-10-23T01:07:27;16.60;;;15.60;;
2199;SDS011;1106;48.762;9.168;2022-10-23T01:10:01;17.87;;;16.57;;
2199;SDS011;1106;48.762;9.168;2022-10-23T01:12:32;16.50;;;15.50;;
2199;SDS011;1106;48.762;9.168;2022-10-23T01:15:05;17.17;;;15.77;;
2199;SDS011;1106;48.762;9.168;2022-10-23T01:17:38;17.63;;;15.90;;
2199;SDS011;1106;48.762;9.168;2022-10-23T01:23:16;17.40;;;16.30;;
2199;SDS011;1106;48.762;9.168;2022-10-23T01:25:57;17.50;;;16.30;;
2199;SDS011;1106;48.762;9.168;2022-10-23T01:28:38;16.90;;;15.97;;
2199;SDS011;1106;48.762;9.168;2022-10-23T01:31:13;17.40;;;16.27;;
2199;SDS011;1106;48.762;9.168;2022-10-23T01:33:44;17.40;;;16.37;;
2199;SDS011;1106;48.762;9.168;2022-10-23T01:36:14;17.17;;;16.23;;
2199;SDS011;1106;48.762;9.168;2022-10-23T01:38:44;17.17;;;15.67;;
2199;SDS011;1106;48.762;9.168;2022-10-23T01:41:18;16.67;;;15.77;;
2199;SDS011;1106;48.762;9.168;2022-10-23T01:43:58;17.23;;;16.23;;
2199;SDS011;1106;48.762;9.168;2022-10-23T01:46:29;17.13;;;16.13;;
2199;SDS011;1106;48.762;9.168;2022-10-23T01:48:59;16.83;;;15.73;;
2199;SDS011;1106;48.762;9.168;2022-10-23T01:51:29;16.77;;;15.40;;
2199;SDS011;1106;48.762;9.168;2022-10-23T01:53:58;16.90;;;15.77;;
2199;SDS011;1106;48.762;9.168;2022-10-23T01:56:27;16.13;;;15.03;;
2199;SDS011;1106;48.762;9.168;2022-10-23T01:59:00;16.80;;;15.60;;
2199;SDS011;1106;48.762;9.168;2022-10-23T02:01:30;16.33;;;15.20;;
2199;SDS011;1106;48.762;9.168;2022-10-23T02:03:59;15.57;;;14.40;;
2199;SDS011;1106;48.762;9.168;2022-10-23T02:06:30;15.93;;;15.10;;
2199;SDS011;1106;48.762;9.168;2022-10-23T02:08:57;16.40;;;15.10;;
2199;SDS011;1106;48.762;9.168;2022-10-23T02:11:24;16.93;;;15.40;;
2199;SDS011;1106;48.762;9.168;2022-10-23T02:13:53;16.47;;;15.37;;
2199;SDS011;1106;48.762;9.168;2022-10-23T02:16:30;16.00;;;14.90;;
2199;SDS011;1106;48.762;9.168;2022-10-23T02:19:07;19.07;;;15.73;;
2199;SDS011;1106;48.762;9.168;2022-10-23T02:21:44;16.50;;;15.40;;
2199;SDS011;1106;48.762;9.168;2022-10-23T02:24:17;17.43;;;16.37;;
2199;SDS011;1106;48.762;9.168;2022-10-23T02:26:49;16.60;;;15.17;;
2199;SDS011;1106;48.762;9.168;2022-10-23T02:29:20;16.77;;;15.80;;
2199;SDS011;1106;48.762;9.168;2022-10-23T02:31:53;16.63;;;15.57;;
2199;SDS011;1106;48.762;9.168;2022-10-23T02:34:19;16.80;;;15.40;;
2199;SDS011;1106;48.762;9.168;2022-10-23T02:36:46;16.27;;;15.20;;
2199;SDS011;1106;48.762;9.168;2022-10-23T02:39:13;16.50;;;15.30;;
2199;SDS011;1106;48.762;9.168;2022-10-23T02:41:41;16.80;;;15.70;;
2199;SDS011;1106;48.762;9.168;2022-10-23T02:44:15;17.13;;;15.93;;
2199;SDS011;1106;48.762;9.168;2022-10-23T02:46:50;16.83;;;15.70;;
2199;SDS011;1106;48.762;9.168;2022-10-23T02:49:24;16.83;;;15.50;;
2199;SDS011;1106;48.762;9.168;2022-10-23T02:51:59;17.23;;;16.20;;
2199;SDS011;1106;48.762;9.168;2022-10-23T02:54:37;15.33;;;14.23;;
2199;SDS011;1106;48.762;9.168;2022-10-23T02:57:14;15.80;;;14.80;;
2199;SDS011;1106;48.762;9.168;2022-10-23T02:59:50;16.80;;;15.73;;
2199;SDS011;1106;48.762;9.168;2022-10-23T03:02:23;16.63;;;15.40;;
2199;SDS011;1106;48.762;9.168;2022-10-23T03:04:55;16.20;;;15.20;;
2199;SDS011;1106;48.762;9.168;2022-10-23T03:07:24;23.20;;;21.90;;
2199;SDS011;1106;48.762;9.168;2022-10-23T03:09:51;14.87;;;14.07;;
2199;SDS011;1106;48.762;9.168;2022-10-23T03:12:18;15.63;;;14.40;;
2199;SDS011;1106;48.762;9.168;2022-10-23T03:14:45;16.67;;;15.47;;
2199;SDS011;1106;48.762;9.168;2022-10-23T03:17:12;15.90;;;14.80;;
2199;SDS011;1106;48.762;9.168;2022-10-23T03:19:40;15.30;;;14.30;;
2199;SDS011;1106;48.762;9.168;2022-10-23T03:22:07;15.67;;;14.70;;
2199;SDS011;1106;48.762;9.168;2022-10-23T03:24:34;16.73;;;15.60;;
2199;SDS011;1106;48.762;9.168;2022-10-23T03:27:01;15.77;;;14.63;;
2199;SDS011;1106;48.762;9.168;2022-10-23T03:29:28;15.97;;;14.87;;
2199;SDS011;1106;48.762;9.168;2022-10-23T03:31:55;15.50;;;14.50;;
2199;SDS011;1106;48.762;9.168;2022-10-23T03:34:22;15.60;;;14.60;;
2199;SDS011;1106;48.762;9.168;2022-10-23T03:36:50;16.13;;;14.90;;
2199;SDS011;1106;48.762;9.168;2022-10-23T03:39:17;15.90;;;15.00;;
2199;SDS011;1106;48.762;9.168;2022-10-23T03:41:44;16.17;;;15.23;;
2199;SDS011;1106;48.762;9.168;2022-10-23T03:44:11;16.03;;;15.10;;
2199;SDS011;1106;48.762;9.168;2022-10-23T03:46:38;16.13;;;15.00;;
2199;SDS011;1106;48.762;9.168;2022-10-23T03:49:04;17.03;;;15.60;;
2199;SDS011;1106;48.762;9.168;2022-10-23T03:51:31;15.87;;;14.77;;
2199;SDS011;1106;48.762;9.168;2022-10-23T03:54:00;16.07;;;14.87;;
2199;SDS011;1106;48.762;9.168;2022-10-23T03:56:27;15.63;;;14.60;;
2199;SDS011;1106;48.762;9.168;2022-10-23T03:58:53;16.03;;;14.90;;
2199;SDS011;1106;48.762;9.168;2022-10-23T04:01:20;16.37;;;15.27;;
2199;SDS011;1106;48.762;9.168;2022-10-23T04:03:47;15.53;;;14.70;;
2199;SDS011;1106;48.762;9.168;2022-10-23T04:06:14;15.60;;;14.67;;
2199;SDS011;1106;48.762;9.168;2022-10-23T04:08:41;15.23;;;14.13;;
2199;SDS011;1106;48.762;9.168;2022-10-23T04:11:10;15.83;;;14.40;;
2199;SDS011;1106;48.762;9.168;2022-10-23T04:13:37;15.10;;;14.20;;
2199;SDS011;1106;48.762;9.168;2022-10-23T04:16:04;15.63;;;14.63;;
2199;SDS011;1106;48.762;9.168;2022-10-23T04:18:31;15.50;;;14.60;;
2199;SDS011;1106;48.762;9.168;2022-10-23T04:20:58;14.53;;;13.73;;
2199;SDS011;1106;48.762;9.168;2022-10-23T04:23:25;14.63;;;13.93;;
2199;SDS011;1106;48.762;9.168;2022-10-23T04:25:54;15.93;;;14.80;;
2199;SDS011;1106;48.762;9.168;2022-10-23T04:28:23;15.83;;;14.87;;
2199;SDS011;1106;48.762;9.168;2022-10-23T04:30:50;15.40;;;14.60;;
2199;SDS011;1106;48.762;9.168;2022-10-23T04:33:17;15.00;;;14.20;;
2199;SDS011;1106;48.762;9.168;2022-10-23T04:35:44;17.63;;;16.63;;
2199;SDS011;1106;48.762;9.168;2022-10-23T04:38:11;15.50;;;14.27;;
2199;SDS011;1106;48.762;9.168;2022-10-23T04:40:38;15.40;;;14.07;;
2199;SDS011;1106;48.762;9.168;2022-10-23T04:43:05;16.13;;;14.83;;
2199;SDS011;1106;48.762;9.168;2022-10-23T04:45:33;14.67;;;13.87;;
2199;SDS011;1106;48.762;9.168;2022-10-23T04:48:00;15.43;;;14.23;;
2199;SDS011;1106;48.762;9.168;2022-10-23T04:50:27;15.40;;;14.33;;
2199;SDS011;1106;48.762;9.168;2022-10-23T04:52:54;15.03;;;14.13;;
2199;SDS011;1106;48.762;9.168;2022-10-23T04:55:22;15.67;;;14.47;;
2199;SDS011;1106;48.762;9.168;2022-10-23T04:57:49;14.43;;;13.60;;
2199;SDS011;1106;48.762;9.168;2022-10-23T05:00:17;15.47;;;14.30;;
2199;SDS011;1106;48.762;9.168;2022-10-23T05:02:46;14.90;;;13.93;;
2199;SDS011;1106;48.762;9.168;2022-10-23T05:05:13;15.40;;;14.40;;
2199;SDS011;1106;48.762;9.168;2022-10-23T05:07:40;15.07;;;14.10;;
2199;SDS011;1106;48.762;9.168;2022-10-23T05:10:07;15.07;;;13.87;;
2199;SDS011;1106;48.762;9.168;2022-10-23T05:12:34;15.30;;;14.03;;
2199;SDS011;1106;48.762;9.168;2022-10-23T05:15:01;14.87;;;14.00;;
2199;SDS011;1106;48.762;9.168;2022-10-23T05:17:29;15.23;;;14.33;;
2199;SDS011;1106;48.762;9.168;2022-10-23T05:20:03;14.20;;;13.10;;
2199;SDS011;1106;48.762;9.168;2022-10-23T05:22:35;18.20;;;17.03;;
2199;SDS011;1106;48.762;9.168;2022-10-23T05:25:05;15.60;;;14.80;;
2199;SDS011;1106;48.762;9.168;2022-10-23T05:27:32;15.27;;;14.50;;
2199;SDS011;1106;48.762;9.168;2022-10-23T05:29:59;14.87;;;13.77;;
2199;SDS011;1106;48.762;9.168;2022-10-23T05:32:27;14.80;;;13.90;;
2199;SDS011;1106;48.762;9.168;2022-10-23T05:34:56;16.43;;;15.53;;
2199;SDS011;1106;48.762;9.168;2022-10-23T05:37:25;16.53;;;15.73;;
2199;SDS011;1106;48.762;9.168;2022-10-23T05:39:52;15.67;;;14.57;;
2199;SDS011;1106;48.762;9.168;2022-10-23T05:42:19;17.33;;;16.40;;
2199;SDS011;1106;48.762;9.168;2022-10-23T05:44:46;14.73;;;13.63;;
2199;SDS011;1106;48.762;9.168;2022-10-23T05:47:13;16.00;;;14.60;;
2199;SDS011;1106;48.762;9.168;2022-10-23T05:49:40;16.80;;;15.90;;
2199;SDS011;1106;48.762;9.168;2022-10-23T05:52:09;18.27;;;16.27;;
2199;SDS011;1106;48.762;9.168;2022-10-23T05:54:38;16.53;;;15.47;;
2199;SDS011;1106;48.762;9.168;2022-10-23T05:57:04;17.17;;;15.63;;
2199;SDS011;1106;48.762;9.168;2022-10-23T05:59:31;19.20;;;18.27;;
2199;SDS011;1106;48.762;9.168;2022-10-23T06:01:58;27.47;;;25.80;;
2199;SDS011;1106;48.762;9.168;2022-10-23T06:04:25;15.70;;;14.37;;
2199;SDS011;1106;48.762;9.168;2022-10-23T06:06:52;15.20;;;14.10;;
2199;SDS011;1106;48.762;9.168;2022-10-23T06:09:19;14.77;;;13.87;;
2199;SDS011;1106;48.762;9.168;2022-10-23T06:11:47;26.33;;;24.90;;
2199;SDS011;1106;48.762;9.168;2022-10-23T06:14:14;22.30;;;21.03;;
2199;SDS011;1106;48.762;9.168;2022-10-23T06:16:41;15.67;;;14.63;;
2199;SDS011;1106;48.762;9.168;2022-10-23T06:19:08;23.57;;;22.30;;
2199;SDS011;1106;48.762;9.168;2022-10-23T06:21:35;15.80;;;14.90;;
2199;SDS011;1106;48.762;9.168;2022-10-23T06:24:03;15.03;;;13.93;;
2199;SDS011;1106;48.762;9.168;2022-10-23T06:26:30;23.73;;;22.53;;
2199;SDS011;1106;48.762;9.168;2022-10-23T06:28:59;19.30;;;17.77;;
2199;SDS011;1106;48.762;9.168;2022-10-23T06:31:26;16.40;;;15.03;;
2199;SDS011;1106;48.762;9.168;2022-10-23T06:33:53;23.33;;;22.00;;
2199;SDS011;1106;48.762;9.168;2022-10-23T06:36:20;24.43;;;23.03;;
2199;SDS011;1106;48.762;9.168;2022-10-23T06:38:47;17.37;;;16.20;;
2199;SDS011;1106;48.762;9.168;2022-10-23T06:41:15;16.43;;;15.60;;
2199;SDS011;1106;48.762;9.168;2022-10-23T06:43:43;17.50;;;16.37;;
2199;SDS011;1106;48.762;9.168;2022-10-23T06:46:14;19.47;;;18.27;;
2199;SDS011;1106;48.762;9.168;2022-10-23T06:48:42;21.03;;;19.90;;
2199;SDS011;1106;48.762;9.168;2022-10-23T06:51:09;16.30;;;15.33;;
2199;SDS011;1106;48.762;9.168;2022-10-23T06:53:37;16.17;;;15.23;;
2199;SDS011;1106;48.762;9.168;2022-10-23T06:56:05;31.83;;;30.07;;
2199;SDS011;1106;48.762;9.168;2022-10-23T06:58:33;18.67;;;17.77;;
2199;SDS011;1106;48.762;9.168;2022-10-23T07:01:02;21.10;;;19.80;;
2199;SDS011;1106;48.762;9.168;2022-10-23T07:03:32;19.70;;;18.40;;
2199;SDS011;1106;48.762;9.168;2022-10-23T07:06:00;16.93;;;15.70;;
2199;SDS011;1106;48.762;9.168;2022-10-23T07:08:28;18.20;;;17.30;;
2199;SDS011;1106;48.762;9.168;2022-10-23T07:10:55;26.07;;;24.73;;
2199;SDS011;1106;48.762;9.168;2022-10-23T07:13:22;19.73;;;18.53;;
2199;SDS011;1106;48.762;9.168;2022-10-23T07:15:49;23.33;;;22.20;;
2199;SDS011;1106;48.762;9.168;2022-10-23T07:18:16;22.23;;;21.03;;
2199;SDS011;1106;48.762;9.168;2022-10-23T07:20:44;22.60;;;21.40;;
2199;SDS011;1106;48.762;9.168;2022-10-23T07:23:13;18.00;;;16.80;;
2199;SDS011;1106;48.762;9.168;2022-10-23T07:25:41;21.67;;;16.17;;
2199;SDS011;1106;48.762;9.168;2022-10-23T07:28:08;19.53;;;18.43;;
2199;SDS011;1106;48.762;9.168;2022-10-23T07:30:38;22.30;;;21.10;;
2199;SDS011;1106;48.762;9.168;2022-10-23T07:33:12;17.00;;;15.87;;
2199;SDS011;1106;48.762;9.168;2022-10-23T07:35:39;17.80;;;16.37;;
2199;SDS011;1106;48.762;9.168;2022-10-23T07:38:07;20.77;;;19.30;;
2199;SDS011;1106;48.762;9.168;2022-10-23T07:40:34;16.47;;;15.50;;
2199;SDS011;1106;48.762;9.168;2022-10-23T07:43:01;17.53;;;16.63;;
2199;SDS011;1106;48.762;9.168;2022-10-23T07:45:28;26.50;;;25.10;;
2199;SDS011;1106;48.762;9.168;2022-10-23T07:47:55;19.07;;;17.77;;
2199;SDS011;1106;48.762;9.168;2022-10-23T07:50:22;24.83;;;23.70;;
2199;SDS011;1106;48.762;9.168;2022-10-23T07:52:49;19.27;;;17.97;;
2199;SDS011;1106;48.762;9.168;2022-10-23T07:55:17;18.27;;;17.37;;
2199;SDS011;1106;48.762;9.168;2022-10-23T07:57:44;18.20;;;17.20;;
2199;SDS011;1106;48.762;9.168;2022-10-23T08:00:11;18.40;;;17.50;;
2199;SDS011;1106;48.762;9.168;2022-10-23T08:02:38;23.13;;;21.53;;
2199;SDS011;1106;48.762;9.168;2022-10-23T08:05:06;20.20;;;19.20;;
2199;SDS011;1106;48.762;9.168;2022-10-23T08:07:33;23.93;;;22.70;;
2199;SDS011;1106;48.762;9.168;2022-10-23T08:10:00;19.13;;;18.23;;
2199;SDS011;1106;48.762;9.168;2022-10-23T08:12:28;20.87;;;19.70;;
2199;SDS011;1106;48.762;9.168;2022-10-23T08:14:55;22.30;;;21.10;;
2199;SDS011;1106;48.762;9.168;2022-10-23T08:17:22;22.20;;;21.20;;
2199;SDS011;1106;48.762;9.168;2022-10-23T08:19:49;25.30;;;24.00;;
2199;SDS011;1106;48.762;9.168;2022-10-23T08:22:16;26.10;;;24.37;;
2199;SDS011;1106;48.762;9.168;2022-10-23T08:24:43;23.20;;;21.90;;
2199;SDS011;1106;48.762;9.168;2022-10-23T08:27:10;22.30;;;21.20;;
2199;SDS011;1106;48.762;9.168;2022-10-23T08:29:38;23.37;;;22.10;;
2199;SDS011;1106;48.762;9.168;2022-10-23T08:32:05;28.63;;;27.30;;
2199;SDS011;1106;48.762;9.168;2022-10-23T08:34:32;30.30;;;28.80;;
2199;SDS011;1106;48.762;9.168;2022-10-23T08:37:02;26.33;;;24.93;;
2199;SDS011;1106;48.762;9.168;2022-10-23T08:39:29;23.43;;;22.13;;
2199;SDS011;1106;48.762;9.168;2022-10-23T08:41:56;23.00;;;21.53;;
2199;SDS011;1106;48.762;9.168;2022-10-23T08:44:25;29.60;;;28.10;;
2199;SDS011;1106;48.762;9.168;2022-10-23T08:47:00;29.90;;;28.40;;
2199;SDS011;1106;48.762;9.168;2022-10-23T08:49:35;32.20;;;30.40;;
2199;SDS011;1106;48.762;9.168;2022-10-23T08:52:12;25.67;;;24.23;;
2199;SDS011;1106;48.762;9.168;2022-10-23T08:54:52;24.53;;;23.13;;
2199;SDS011;1106;48.762;9.168;2022-10-23T08:57:25;29.30;;;27.47;;
2199;SDS011;1106;48.762;9.168;2022-10-23T08:59:59;24.23;;;22.73;;
2199;SDS011;1106;48.762;9.168;2022-10-23T09:02:30;24.90;;;23.60;;
2199;SDS011;1106;48.762;9.168;2022-10-23T09:05:01;26.77;;;25.37;;
2199;SDS011;1106;48.762;9.168;2022-10-23T09:07:31;25.50;;;23.93;;
2199;SDS011;1106;48.762;9.168;2022-10-23T09:10:17;27.17;;;25.40;;
2199;SDS011;1106;48.762;9.168;2022-10-23T09:12:56;25.23;;;23.83;;
2199;SDS011;1106;48.762;9.168;2022-10-23T09:15:26;24.73;;;23.43;;
2199;SDS011;1106;48.762;9.168;2022-10-23T09:17:58;23.93;;;22.50;;
2199;SDS011;1106;48.762;9.168;2022-10-23T09:20:30;24.50;;;23.30;;
2199;SDS011;1106;48.762;9.168;2022-10-23T09:23:01;27.07;;;25.30;;
2199;SDS011;1106;48.762;9.168;2022-10-23T09:25:33;25.40;;;24.20;;
2199;SDS011;1106;48.762;9.168;2022-10-23T09:28:03;25.37;;;23.77;;
2199;SDS011;1106;48.762;9.168;2022-10-23T09:30:32;31.90;;;29.93;;
2199;SDS011;1106;48.762;9.168;2022-10-23T09:33:11;26.83;;;25.43;;
2199;SDS011;1106;48.762;9.168;2022-10-23T09:35:50;25.70;;;24.40;;
2199;SDS011;1106;48.762;9.168;2022-10-23T09:38:24;24.80;;;23.50;;
2199;SDS011;1106;48.762;9.168;2022-10-23T09:40:53;28.97;;;27.40;;
2199;SDS011;1106;48.762;9.168;2022-10-23T09:43:21;24.43;;;23.13;;
2199;SDS011;1106;48.762;9.168;2022-10-23T09:45:57;36.90;;;34.90;;
2199;SDS011;1106;48.762;9.168;2022-10-23T09:48:28;29.60;;;27.80;;
2199;SDS011;1106;48.762;9.168;2022-10-23T09:50:55;31.13;;;29.07;;
2199;SDS011;1106;48.762;9.168;2022-10-23T09:53:33;27.97;;;26.57;;
2199;SDS011;1106;48.762;9.168;2022-10-23T09:56:04;26.60;;;25.00;;
2199;SDS011;1106;48.762;9.168;2022-10-23T09:58:36;28.33;;;26.83;;
2199;SDS011;1106;48.762;9.168;2022-10-23T10:01:19;30.60;;;28.90;;
2199;SDS011;1106;48.762;9.168;2022-10-23T10:03:50;27.90;;;26.30;;
2199;SDS011;1106;48.762;9.168;2022-10-23T10:06:20;31.70;;;30.10;;
2199;SDS011;1106;48.762;9.168;2022-10-23T10:08:50;28.00;;;26.60;;
2199;SDS011;1106;48.762;9.168;2022-10-23T10:11:19;33.70;;;31.90;;
2199;SDS011;1106;48.762;9.168;2022-10-23T10:14:02;33.13;;;31.27;;
2199;SDS011;1106;48.762;9.168;2022-10-23T10:16:49;28.60;;;26.87;;
2199;SDS011;1106;48.762;9.168;2022-10-23T10:19:28;44.40;;;42.30;;
2199;SDS011;1106;48.762;9.168;2022-10-23T10:22:07;27.50;;;25.90;;
2199;SDS011;1106;48.762;9.168;2022-10-23T10:24:44;25.70;;;24.57;;
2199;SDS011;1106;48.762;9.168;2022-10-23T10:27:19;27.27;;;26.00;;
2199;SDS011;1106;48.762;9.168;2022-10-23T10:30:00;26.37;;;25.07;;
2199;SDS011;1106;48.762;9.168;2022-10-23T10:32:34;25.67;;;24.43;;
2199;SDS011;1106;48.762;9.168;2022-10-23T10:35:16;27.20;;;25.70;;
2199;SDS011;1106;48.762;9.168;2022-10-23T10:37:53;28.00;;;26.60;;
2199;SDS011;1106;48.762;9.168;2022-10-23T10:40:30;35.83;;;33.80;;
2199;SDS011;1106;48.762;9.168;2022-10-23T10:43:07;25.90;;;24.70;;
2199;SDS011;1106;48.762;9.168;2022-10-23T10:45:45;31.70;;;30.10;;
2199;SDS011;1106;48.762;9.168;2022-10-23T10:48:22;33.50;;;31.90;;
2199;SDS011;1106;48.762;9.168;2022-10-23T10:50:59;27.10;;;25.90;;
2199;SDS011;1106;48.762;9.168;2022-10-23T10:53:30;34.37;;;32.63;;
2199;SDS011;1106;48.762;9.168;2022-10-23T10:56:04;25.17;;;23.80;;
2199;SDS011;1106;48.762;9.168;2022-10-23T10:58:37;27.37;;;25.93;;
2199;SDS011;1106;48.762;9.168;2022-10-23T11:01:10;29.37;;;27.77;;
2199;SDS011;1106;48.762;9.168;2022-10-23T11:03:43;26.63;;;25.43;;
2199;SDS011;1106;48.762;9.168;2022-10-23T11:06:15;26.00;;;24.70;;
2199;SDS011;1106;48.762;9.168;2022-10-23T11:08:46;27.77;;;26.37;;
2199;SDS011;1106;48.762;9.168;2022-10-23T11:11:14;39.53;;;37.23;;
2199;SDS011;1106;48.762;9.168;2022-10-23T11:13:44;27.70;;;26.40;;
2199;SDS011;1106;48.762;9.168;2022-10-23T11:16:11;28.17;;;26.77;;
2199;SDS011;1106;48.762;9.168;2022-10-23T11:18:41;26.43;;;25.23;;
2199;SDS011;1106;48.762;9.168;2022-10-23T11:21:17;29.67;;;28.17;;
2199;SDS011;1106;48.762;9.168;2022-10-23T11:23:57;30.00;;;28.40;;
2199;SDS011;1106;48.762;9.168;2022-10-23T11:26:56;27.53;;;26.20;;
2199;SDS011;1106;48.762;9.168;2022-10-23T11:29:42;27.70;;;26.20;;
2199;SDS011;1106;48.762;9.168;2022-10-23T11:32:25;28.87;;;27.33;;
2199;SDS011;1106;48.762;9.168;2022-10-23T11:35:03;25.03;;;23.83;;
2199;SDS011;1106;48.762;9.168;2022-10-23T11:37:42;31.57;;;29.87;;
2199;SDS011;1106;48.762;9.168;2022-10-23T11:40:17;29.17;;;27.70;;
2199;SDS011;1106;48.762;9.168;2022-10-23T11:42:48;28.13;;;26.27;;
2199;SDS011;1106;48.762;9.168;2022-10-23T11:45:32;29.07;;;27.57;;
2199;SDS011;1106;48.762;9.168;2022-10-23T11:48:01;25.83;;;24.50;;
2199;SDS011;1106;48.762;9.168;2022-10-23T11:50:31;26.10;;;24.80;;
2199;SDS011;1106;48.762;9.168;2022-10-23T11:53:05;29.47;;;27.87;;
2199;SDS011;1106;48.762;9.168;2022-10-23T11:55:56;27.43;;;26.03;;
2199;SDS011;1106;48.762;9.168;2022-10-23T11:58:25;27.17;;;25.97;;
2199;SDS011;1106;48.762;9.168;2022-10-23T12:00:57;30.27;;;28.67;;
2199;SDS011;1106;48.762;9.168;2022-10-23T12:03:29;37.70;;;35.77;;
2199;SDS011;1106;48.762;9.168;2022-10-23T12:06:06;29.20;;;27.50;;
2199;SDS011;1106;48.762;9.168;2022-10-23T12:08:53;26.30;;;25.00;;
2199;SDS011;1106;48.762;9.168;2022-10-23T12:11:25;27.77;;;26.30;;
2199;SDS011;1106;48.762;9.168;2022-10-23T12:13:54;30.40;;;28.77;;
2199;SDS011;1106;48.762;9.168;2022-10-23T12:16:21;28.53;;;27.03;;
2199;SDS011;1106;48.762;9.168;2022-10-23T12:19:00;34.70;;;32.80;;
2199;SDS011;1106;48.762;9.168;2022-10-23T12:21:44;33.77;;;32.00;;
2199;SDS011;1106;48.762;9.168;2022-10-23T12:24:20;28.63;;;27.20;;
2199;SDS011;1106;48.762;9.168;2022-10-23T12:27:05;28.90;;;27.50;;
2199;SDS011;1106;48.762;9.168;2022-10-23T12:29:45;28.67;;;27.07;;
2199;SDS011;1106;48.762;9.168;2022-10-23T12:32:26;28.20;;;26.80;;
2199;SDS011;1106;48.762;9.168;2022-10-23T12:35:23;28.10;;;26.60;;
2199;SDS011;1106;48.762;9.168;2022-10-23T12:38:06;27.17;;;25.77;;
2199;SDS011;1106;48.762;9.168;2022-10-23T12:40:40;29.30;;;27.67;;
2199;SDS011;1106;48.762;9.168;2022-10-23T12:43:20;32.57;;;30.67;;
2199;SDS011;1106;48.762;9.168;2022-10-23T12:45:51;28.77;;;27.47;;
2199;SDS011;1106;48.762;9.168;2022-10-23T12:48:21;30.50;;;29.10;;
2199;SDS011;1106;48.762;9.168;2022-10-23T12:50:49;28.33;;;26.93;;
2199;SDS011;1106;48.762;9.168;2022-10-23T12:53:18;27.73;;;26.40;;
2199;SDS011;1106;48.762;9.168;2022-10-23T12:55:48;27.23;;;25.57;;
2199;SDS011;1106;48.762;9.168;2022-10-23T12:58:20;34.13;;;32.43;;
2199;SDS011;1106;48.762;9.168;2022-10-23T13:00:50;37.40;;;35.40;;
2199;SDS011;1106;48.762;9.168;2022-10-23T13:03:18;35.83;;;33.93;;
2199;SDS011;1106;48.762;9.168;2022-10-23T13:05:46;28.50;;;27.20;;
2199;SDS011;1106;48.762;9.168;2022-10-23T13:08:13;31.47;;;29.47;;
2199;SDS011;1106;48.762;9.168;2022-10-23T13:10:40;28.40;;;26.80;;
2199;SDS011;1106;48.762;9.168;2022-10-23T13:13:10;33.10;;;31.37;;
2199;SDS011;1106;48.762;9.168;2022-10-23T13:15:39;29.43;;;27.83;;
2199;SDS011;1106;48.762;9.168;2022-10-23T13:18:09;28.83;;;27.40;;
2199;SDS011;1106;48.762;9.168;2022-10-23T13:20:40;29.90;;;28.50;;
2199;SDS011;1106;48.762;9.168;2022-10-23T13:23:09;29.60;;;27.97;;
2199;SDS011;1106;48.762;9.168;2022-10-23T13:25:41;33.53;;;31.67;;
2199;SDS011;1106;48.762;9.168;2022-10-23T13:30:57;30.07;;;28.47;;
2199;SDS011;1106;48.762;9.168;2022-10-23T13:33:33;44.07;;;41.73;;
2199;SDS011;1106;48.762;9.168;2022-10-23T13:36:02;46.37;;;44.07;;
2199;SDS011;1106;48.762;9.168;2022-10-23T13:38:33;31.33;;;29.83;;
2199;SDS011;1106;48.762;9.168;2022-10-23T13:41:02;30.23;;;28.73;;
2199;SDS011;1106;48.762;9.168;2022-10-23T13:43:32;29.23;;;27.63;;
2199;SDS011;1106;48.762;9.168;2022-10-23T13:46:00;33.70;;;31.80;;
2199;SDS011;1106;48.762;9.168;2022-10-23T13:48:27;34.40;;;32.30;;
2199;SDS011;1106;48.762;9.168;2022-10-23T13:50:57;31.60;;;29.80;;
2199;SDS011;1106;48.762;9.168;2022-10-23T13:53:31;35.07;;;33.10;;
2199;SDS011;1106;48.762;9.168;2022-10-23T13:55:58;30.40;;;28.60;;
2199;SDS011;1106;48.762;9.168;2022-10-23T13:58:25;46.03;;;43.37;;
2199;SDS011;1106;48.762;9.168;2022-10-23T14:00:53;35.27;;;32.90;;
2199;SDS011;1106;48.762;9.168;2022-10-23T14:03:21;40.57;;;38.50;;
2199;SDS011;1106;48.762;9.168;2022-10-23T14:05:48;31.67;;;29.93;;
2199;SDS011;1106;48.762;9.168;2022-10-23T14:08:15;29.97;;;28.43;;
2199;SDS011;1106;48.762;9.168;2022-10-23T14:10:42;29.30;;;27.80;;
2199;SDS011;1106;48.762;9.168;2022-10-23T14:13:09;29.23;;;27.73;;
2199;SDS011;1106;48.762;9.168;2022-10-23T14:15:36;34.47;;;32.50;;
2199;SDS011;1106;48.762;9.168;2022-10-23T14:18:05;33.53;;;31.40;;
2199;SDS011;1106;48.762;9.168;2022-10-23T14:20:32;50.50;;;48.00;;
2199;SDS011;1106;48.762;9.168;2022-10-23T14:22:59;30.27;;;28.47;;
2199;SDS011;1106;48.762;9.168;2022-10-23T14:25:26;30.40;;;28.67;;
2199;SDS011;1106;48.762;9.168;2022-10-23T14:27:53;25.73;;;24.50;;
2199;SDS011;1106;48.762;9.168;2022-10-23T14:30:20;48.17;;;45.33;;
2199;SDS011;1106;48.762;9.168;2022-10-23T14:32:47;35.53;;;33.43;;
2199;SDS011;1106;48.762;9.168;2022-10-23T14:35:16;30.63;;;28.63;;
2199;SDS011;1106;48.762;9.168;2022-10-23T14:37:43;28.97;;;27.00;;
2199;SDS011;1106;48.762;9.168;2022-10-23T14:40:10;31.87;;;30.17;;
2199;SDS011;1106;48.762;9.168;2022-10-23T14:42:37;27.37;;;25.77;;
2199;SDS011;1106;48.762;9.168;2022-10-23T14:45:05;28.47;;;26.40;;
2199;SDS011;1106;48.762;9.168;2022-10-23T14:47:33;35.00;;;32.80;;
2199;SDS011;1106;48.762;9.168;2022-10-23T14:50:00;26.43;;;24.80;;
2199;SDS011;1106;48.762;9.168;2022-10-23T14:52:28;28.20;;;26.60;;
2199;SDS011;1106;48.762;9.168;2022-10-23T14:54:55;24.60;;;23.13;;
2199;SDS011;1106;48.762;9.168;2022-10-23T14:57:22;39.47;;;37.27;;
2199;SDS011;1106;48.762;9.168;2022-10-23T14:59:49;32.28;;;30.40;;
2199;SDS011;1106;48.762;9.168;2022-10-23T15:02:16;34.20;;;32.10;;
2199;SDS011;1106;48.762;9.168;2022-10-23T15:04:43;27.70;;;26.07;;
2199;SDS011;1106;48.762;9.168;2022-10-23T15:07:10;28.67;;;26.67;;
2199;SDS011;1106;48.762;9.168;2022-10-23T15:09:38;27.13;;;25.10;;
2199;SDS011;1106;48.762;9.168;2022-10-23T15:12:05;33.93;;;31.70;;